This is the latest recevied weather packets stored in our database for station/object EA3AGY-13. If no packets are shown the sender has not sent any weather packets the latest 10 day(s).
| Time | Temp. | Humidity | Pressure | Rain* | Wind** | Luminosity | Snow |
|---|---|---|---|---|---|---|---|
| 1777673528 | 7.22° C | 32% | 1021.9 hPa | 0 mm | - | - | - |
| 1777672325 | 7.22° C | 36% | 1021.9 hPa | 0 mm | - | - | - |
| 1777670516 | 7.22° C | 42% | 1022.2 hPa | 0 mm | - | - | - |
| 1777668708 | 7.78° C | 36% | 1022.2 hPa | 0 mm | - | - | - |
| 1777668103 | 8.33° C | 34% | 1022.2 hPa | 0 mm | - | - | - |
| 1777667500 | 8.33° C | 33% | 1022.2 hPa | 0 mm | - | - | - |
| 1777666296 | 7.78° C | 39% | 1022.1 hPa | 0 mm | - | - | - |
| 1777663886 | 10° C | 25% | 1021.8 hPa | 0 mm | - | - | - |
| 1777662081 | 12.22° C | 18% | 1021.4 hPa | 0 mm | - | - | - |
| 1777661478 | 12.78° C | 14% | 1021.5 hPa | 0 mm | - | - | - |
| 1777660875 | 13.89° C | 14% | 1021.5 hPa | 0 mm | - | - | - |
| 1777660273 | 14.44° C | 12% | 1021.3 hPa | 0 mm | - | - | - |
| 1777659669 | 13.89° C | 14% | 1021.2 hPa | 0 mm | - | - | - |
| 1777659067 | 15° C | 14% | 1021.2 hPa | 0 mm | - | - | - |
| 1777657862 | 15.56° C | 13% | 1021.1 hPa | 0 mm | - | - | - |
| 1777657260 | 15.56° C | 13% | 1021.2 hPa | 0 mm | - | - | - |
| 1777656057 | 16.11° C | 11% | 1021 hPa | 0 mm | - | - | - |
| 1777655454 | 16.67° C | 12% | 1021.1 hPa | 0 mm | - | - | - |
| 1777654851 | 16.67° C | 10% | 1021.1 hPa | 0 mm | - | - | - |
| 1777653646 | 17.22° C | 10% | 1021 hPa | 0 mm | - | - | - |
| 1777653044 | 17.22° C | 10% | 1021.1 hPa | 0 mm | - | - | - |
| 1777652442 | 17.22° C | 11% | 1021.1 hPa | 0 mm | - | - | - |
| 1777650634 | 18.89° C | 15% | 1020.9 hPa | 0 mm | - | - | - |
| 1777650032 | 19.44° C | 16% | 1020.9 hPa | 0 mm | - | - | - |
| 1777649430 | 17.78° C | 16% | 1020.9 hPa | 0 mm | - | - | - |
* Rain since midnight (hover to see other rain measurements)
** Current wind speed in m/s (hover to see current wind gust speed)